Edgard, Louisiana
Current Conditions -  °F | °C
As of 5:55 AM on Monday 22 Dec 2014 (Local Time) from K1L0 Reporting Station
Thunderstorm Thunderstorm  
Wind Chill: 59°   Ceiling: 300
Heat Index: 59°   Visibility: 1.7mi
Dew Point: 57°   Wind: 0mph
Humidity: 94%   Direction: NA
Pressure: 29.85"   Gusts: NA
Location:  30.04°N, 90.56°W
Report Text: K1L0 221155Z AUTO 00000KT 1 3/4SM VCTS BR OVC003 15/14 A2985 RMK AO2 LTG DSNT E P0001 60002 70008 T01500140 10151 20140
Loading
Personal Weather Stations






























Interactive Weather Map New forecast layout! Learn more

10-Day Weather Forecast

Advertisements
Track Severe Weather on mobile